sensor_id;sensor_type;location;lat;lon;timestamp;P1;durP1;ratioP1;P2;durP2;ratioP2
75990;SDS011;64673;52.276;10.560;2023-08-01T00:01:57;1.95;;;0.80;;
75990;SDS011;64673;52.276;10.560;2023-08-01T00:04:22;2.70;;;0.70;;
75990;SDS011;64673;52.276;10.560;2023-08-01T00:06:47;2.47;;;0.95;;
75990;SDS011;64673;52.276;10.560;2023-08-01T00:09:12;1.60;;;0.65;;
75990;SDS011;64673;52.276;10.560;2023-08-01T00:11:38;1.58;;;0.82;;
75990;SDS011;64673;52.276;10.560;2023-08-01T00:14:03;1.40;;;0.57;;
75990;SDS011;64673;52.276;10.560;2023-08-01T00:16:28;1.65;;;0.73;;
75990;SDS011;64673;52.276;10.560;2023-08-01T00:18:54;2.92;;;0.95;;
75990;SDS011;64673;52.276;10.560;2023-08-01T00:21:19;1.90;;;0.75;;
75990;SDS011;64673;52.276;10.560;2023-08-01T00:23:44;1.33;;;0.68;;
75990;SDS011;64673;52.276;10.560;2023-08-01T00:26:10;1.38;;;0.73;;
75990;SDS011;64673;52.276;10.560;2023-08-01T00:28:35;3.45;;;0.93;;
75990;SDS011;64673;52.276;10.560;2023-08-01T00:31:04;4.07;;;1.00;;
75990;SDS011;64673;52.276;10.560;2023-08-01T00:33:30;2.50;;;1.10;;
75990;SDS011;64673;52.276;10.560;2023-08-01T00:35:56;2.38;;;0.90;;
75990;SDS011;64673;52.276;10.560;2023-08-01T00:38:21;2.13;;;0.85;;
75990;SDS011;64673;52.276;10.560;2023-08-01T00:40:46;4.63;;;1.35;;
75990;SDS011;64673;52.276;10.560;2023-08-01T00:43:12;1.98;;;0.95;;
75990;SDS011;64673;52.276;10.560;2023-08-01T00:45:37;3.10;;;1.23;;
75990;SDS011;64673;52.276;10.560;2023-08-01T00:48:03;1.88;;;0.90;;
75990;SDS011;64673;52.276;10.560;2023-08-01T00:50:28;2.90;;;1.13;;
75990;SDS011;64673;52.276;10.560;2023-08-01T00:52:54;2.67;;;1.20;;
75990;SDS011;64673;52.276;10.560;2023-08-01T00:55:20;2.60;;;1.30;;
75990;SDS011;64673;52.276;10.560;2023-08-01T00:57:47;1.90;;;0.95;;
75990;SDS011;64673;52.276;10.560;2023-08-01T01:00:13;3.03;;;1.20;;
75990;SDS011;64673;52.276;10.560;2023-08-01T01:02:39;3.20;;;1.30;;
75990;SDS011;64673;52.276;10.560;2023-08-01T01:05:04;2.90;;;1.30;;
75990;SDS011;64673;52.276;10.560;2023-08-01T01:07:30;3.65;;;1.27;;
75990;SDS011;64673;52.276;10.560;2023-08-01T01:09:57;4.30;;;1.30;;
75990;SDS011;64673;52.276;10.560;2023-08-01T01:12:23;2.97;;;1.58;;
75990;SDS011;64673;52.276;10.560;2023-08-01T01:14:48;3.70;;;1.30;;
75990;SDS011;64673;52.276;10.560;2023-08-01T01:17:14;3.28;;;1.30;;
75990;SDS011;64673;52.276;10.560;2023-08-01T01:19:39;3.75;;;1.33;;
75990;SDS011;64673;52.276;10.560;2023-08-01T01:22:05;5.13;;;1.48;;
75990;SDS011;64673;52.276;10.560;2023-08-01T01:24:33;4.25;;;1.13;;
75990;SDS011;64673;52.276;10.560;2023-08-01T01:27:00;2.88;;;1.50;;
75990;SDS011;64673;52.276;10.560;2023-08-01T01:29:28;2.20;;;1.02;;
75990;SDS011;64673;52.276;10.560;2023-08-01T01:31:55;5.05;;;2.20;;
75990;SDS011;64673;52.276;10.560;2023-08-01T01:34:21;4.90;;;2.22;;
75990;SDS011;64673;52.276;10.560;2023-08-01T01:36:46;4.60;;;2.47;;
75990;SDS011;64673;52.276;10.560;2023-08-01T01:39:12;3.97;;;2.30;;
75990;SDS011;64673;52.276;10.560;2023-08-01T01:41:37;5.97;;;2.70;;
75990;SDS011;64673;52.276;10.560;2023-08-01T01:44:02;4.45;;;2.30;;
75990;SDS011;64673;52.276;10.560;2023-08-01T01:46:28;5.20;;;2.15;;
75990;SDS011;64673;52.276;10.560;2023-08-01T01:48:53;3.97;;;1.83;;
75990;SDS011;64673;52.276;10.560;2023-08-01T01:51:19;3.40;;;1.90;;
75990;SDS011;64673;52.276;10.560;2023-08-01T01:53:46;2.65;;;1.48;;
75990;SDS011;64673;52.276;10.560;2023-08-01T01:56:11;5.13;;;1.67;;
75990;SDS011;64673;52.276;10.560;2023-08-01T01:58:36;5.05;;;1.45;;
75990;SDS011;64673;52.276;10.560;2023-08-01T02:01:02;4.93;;;1.50;;
75990;SDS011;64673;52.276;10.560;2023-08-01T02:03:27;4.47;;;1.20;;
75990;SDS011;64673;52.276;10.560;2023-08-01T02:05:52;4.43;;;1.60;;
75990;SDS011;64673;52.276;10.560;2023-08-01T02:08:18;2.97;;;1.20;;
75990;SDS011;64673;52.276;10.560;2023-08-01T02:10:43;2.10;;;1.20;;
75990;SDS011;64673;52.276;10.560;2023-08-01T02:13:08;3.00;;;1.27;;
75990;SDS011;64673;52.276;10.560;2023-08-01T02:15:34;2.72;;;1.27;;
75990;SDS011;64673;52.276;10.560;2023-08-01T02:17:59;7.95;;;1.90;;
75990;SDS011;64673;52.276;10.560;2023-08-01T02:20:24;3.03;;;1.23;;
75990;SDS011;64673;52.276;10.560;2023-08-01T02:22:50;3.35;;;1.45;;
75990;SDS011;64673;52.276;10.560;2023-08-01T02:25:15;2.53;;;1.33;;
75990;SDS011;64673;52.276;10.560;2023-08-01T02:27:40;1.70;;;0.88;;
75990;SDS011;64673;52.276;10.560;2023-08-01T02:30:06;3.47;;;1.52;;
75990;SDS011;64673;52.276;10.560;2023-08-01T02:32:32;4.10;;;1.30;;
75990;SDS011;64673;52.276;10.560;2023-08-01T02:34:57;4.53;;;1.80;;
75990;SDS011;64673;52.276;10.560;2023-08-01T02:37:22;2.47;;;1.50;;
75990;SDS011;64673;52.276;10.560;2023-08-01T02:39:48;3.28;;;1.70;;
75990;SDS011;64673;52.276;10.560;2023-08-01T02:42:13;3.28;;;1.63;;
75990;SDS011;64673;52.276;10.560;2023-08-01T02:44:38;5.28;;;1.30;;
75990;SDS011;64673;52.276;10.560;2023-08-01T02:47:04;4.95;;;1.70;;
75990;SDS011;64673;52.276;10.560;2023-08-01T02:49:30;5.25;;;1.65;;
75990;SDS011;64673;52.276;10.560;2023-08-01T02:51:56;3.45;;;1.25;;
75990;SDS011;64673;52.276;10.560;2023-08-01T02:54:21;3.97;;;1.40;;
75990;SDS011;64673;52.276;10.560;2023-08-01T02:56:46;4.20;;;1.30;;
75990;SDS011;64673;52.276;10.560;2023-08-01T02:59:12;2.75;;;1.27;;
75990;SDS011;64673;52.276;10.560;2023-08-01T03:01:38;1.98;;;0.90;;
75990;SDS011;64673;52.276;10.560;2023-08-01T03:04:04;1.65;;;0.80;;
75990;SDS011;64673;52.276;10.560;2023-08-01T03:06:33;2.47;;;1.00;;
75990;SDS011;64673;52.276;10.560;2023-08-01T03:08:59;2.78;;;1.23;;
75990;SDS011;64673;52.276;10.560;2023-08-01T03:11:24;1.60;;;0.73;;
75990;SDS011;64673;52.276;10.560;2023-08-01T03:13:50;3.55;;;1.05;;
75990;SDS011;64673;52.276;10.560;2023-08-01T03:16:16;2.35;;;1.10;;
75990;SDS011;64673;52.276;10.560;2023-08-01T03:18:41;2.50;;;0.95;;
75990;SDS011;64673;52.276;10.560;2023-08-01T03:21:07;1.92;;;0.98;;
75990;SDS011;64673;52.276;10.560;2023-08-01T03:23:32;2.40;;;1.00;;
75990;SDS011;64673;52.276;10.560;2023-08-01T03:25:58;3.30;;;1.30;;
75990;SDS011;64673;52.276;10.560;2023-08-01T03:28:25;2.75;;;1.40;;
75990;SDS011;64673;52.276;10.560;2023-08-01T03:30:51;1.92;;;1.00;;
75990;SDS011;64673;52.276;10.560;2023-08-01T03:35:43;2.93;;;1.13;;
75990;SDS011;64673;52.276;10.560;2023-08-01T03:38:08;4.13;;;1.33;;
75990;SDS011;64673;52.276;10.560;2023-08-01T03:40:34;5.35;;;1.30;;
75990;SDS011;64673;52.276;10.560;2023-08-01T03:42:59;2.95;;;1.23;;
75990;SDS011;64673;52.276;10.560;2023-08-01T03:45:24;3.38;;;1.40;;
75990;SDS011;64673;52.276;10.560;2023-08-01T03:47:50;2.95;;;1.38;;
75990;SDS011;64673;52.276;10.560;2023-08-01T03:50:15;2.65;;;1.58;;
75990;SDS011;64673;52.276;10.560;2023-08-01T03:52:40;3.00;;;1.60;;
75990;SDS011;64673;52.276;10.560;2023-08-01T03:55:06;4.57;;;1.98;;
75990;SDS011;64673;52.276;10.560;2023-08-01T03:57:31;6.25;;;1.45;;
75990;SDS011;64673;52.276;10.560;2023-08-01T03:59:58;4.43;;;1.33;;
75990;SDS011;64673;52.276;10.560;2023-08-01T04:02:24;5.00;;;2.03;;
75990;SDS011;64673;52.276;10.560;2023-08-01T04:04:49;2.85;;;1.60;;
75990;SDS011;64673;52.276;10.560;2023-08-01T04:07:15;2.47;;;1.13;;
75990;SDS011;64673;52.276;10.560;2023-08-01T04:09:40;2.67;;;1.17;;
75990;SDS011;64673;52.276;10.560;2023-08-01T04:12:05;4.90;;;1.15;;
75990;SDS011;64673;52.276;10.560;2023-08-01T04:14:32;4.82;;;1.38;;
75990;SDS011;64673;52.276;10.560;2023-08-01T04:16:57;4.20;;;1.27;;
75990;SDS011;64673;52.276;10.560;2023-08-01T04:19:23;2.97;;;1.60;;
75990;SDS011;64673;52.276;10.560;2023-08-01T04:21:48;2.22;;;0.93;;
75990;SDS011;64673;52.276;10.560;2023-08-01T04:24:14;3.25;;;0.95;;
75990;SDS011;64673;52.276;10.560;2023-08-01T04:26:39;3.95;;;1.13;;
75990;SDS011;64673;52.276;10.560;2023-08-01T04:29:04;3.13;;;1.20;;
75990;SDS011;64673;52.276;10.560;2023-08-01T04:31:30;3.28;;;1.30;;
75990;SDS011;64673;52.276;10.560;2023-08-01T04:33:55;3.47;;;1.20;;
75990;SDS011;64673;52.276;10.560;2023-08-01T04:36:20;3.15;;;1.05;;
75990;SDS011;64673;52.276;10.560;2023-08-01T04:38:46;2.42;;;1.05;;
75990;SDS011;64673;52.276;10.560;2023-08-01T04:41:11;3.22;;;0.95;;
75990;SDS011;64673;52.276;10.560;2023-08-01T04:43:36;4.00;;;0.80;;
75990;SDS011;64673;52.276;10.560;2023-08-01T04:46:01;4.05;;;1.00;;
75990;SDS011;64673;52.276;10.560;2023-08-01T04:48:27;3.05;;;0.80;;
75990;SDS011;64673;52.276;10.560;2023-08-01T04:50:52;3.15;;;0.85;;
75990;SDS011;64673;52.276;10.560;2023-08-01T04:53:17;3.15;;;0.90;;
75990;SDS011;64673;52.276;10.560;2023-08-01T04:55:43;2.15;;;0.80;;
75990;SDS011;64673;52.276;10.560;2023-08-01T04:58:08;1.70;;;0.88;;
75990;SDS011;64673;52.276;10.560;2023-08-01T05:00:33;2.47;;;0.93;;
75990;SDS011;64673;52.276;10.560;2023-08-01T05:02:59;4.43;;;1.13;;
75990;SDS011;64673;52.276;10.560;2023-08-01T05:05:24;1.85;;;0.90;;
75990;SDS011;64673;52.276;10.560;2023-08-01T05:07:49;4.28;;;0.60;;
75990;SDS011;64673;52.276;10.560;2023-08-01T05:10:15;2.72;;;1.00;;
75990;SDS011;64673;52.276;10.560;2023-08-01T05:12:40;3.08;;;1.20;;
75990;SDS011;64673;52.276;10.560;2023-08-01T05:15:06;1.88;;;0.93;;
75990;SDS011;64673;52.276;10.560;2023-08-01T05:17:31;1.83;;;0.82;;
75990;SDS011;64673;52.276;10.560;2023-08-01T05:19:57;3.65;;;1.20;;
75990;SDS011;64673;52.276;10.560;2023-08-01T05:22:22;2.33;;;0.70;;
75990;SDS011;64673;52.276;10.560;2023-08-01T05:24:48;1.83;;;0.50;;
75990;SDS011;64673;52.276;10.560;2023-08-01T05:27:13;1.50;;;0.50;;
75990;SDS011;64673;52.276;10.560;2023-08-01T05:29:38;2.60;;;0.80;;
75990;SDS011;64673;52.276;10.560;2023-08-01T05:32:03;1.45;;;0.40;;
75990;SDS011;64673;52.276;10.560;2023-08-01T05:34:29;1.35;;;0.30;;
75990;SDS011;64673;52.276;10.560;2023-08-01T05:36:54;0.65;;;0.22;;
75990;SDS011;64673;52.276;10.560;2023-08-01T05:39:20;0.98;;;0.38;;
75990;SDS011;64673;52.276;10.560;2023-08-01T05:41:45;1.33;;;0.40;;
75990;SDS011;64673;52.276;10.560;2023-08-01T05:44:11;0.77;;;0.25;;
75990;SDS011;64673;52.276;10.560;2023-08-01T05:46:36;0.75;;;0.30;;
75990;SDS011;64673;52.276;10.560;2023-08-01T05:49:01;0.77;;;0.30;;
75990;SDS011;64673;52.276;10.560;2023-08-01T05:51:27;0.52;;;0.28;;
75990;SDS011;64673;52.276;10.560;2023-08-01T05:53:52;2.08;;;0.40;;
75990;SDS011;64673;52.276;10.560;2023-08-01T05:56:17;1.88;;;0.30;;
75990;SDS011;64673;52.276;10.560;2023-08-01T05:58:43;1.35;;;0.30;;
75990;SDS011;64673;52.276;10.560;2023-08-01T06:01:10;0.57;;;0.30;;
75990;SDS011;64673;52.276;10.560;2023-08-01T06:03:35;1.15;;;0.20;;
75990;SDS011;64673;52.276;10.560;2023-08-01T06:06:01;1.60;;;0.20;;
75990;SDS011;64673;52.276;10.560;2023-08-01T06:08:26;2.40;;;0.30;;
75990;SDS011;64673;52.276;10.560;2023-08-01T06:10:51;1.10;;;0.20;;
75990;SDS011;64673;52.276;10.560;2023-08-01T06:13:17;0.50;;;0.20;;
75990;SDS011;64673;52.276;10.560;2023-08-01T06:15:42;1.35;;;0.22;;
75990;SDS011;64673;52.276;10.560;2023-08-01T06:18:07;1.65;;;0.30;;
75990;SDS011;64673;52.276;10.560;2023-08-01T06:20:33;0.60;;;0.13;;
75990;SDS011;64673;52.276;10.560;2023-08-01T06:22:58;1.25;;;0.30;;
75990;SDS011;64673;52.276;10.560;2023-08-01T06:25:24;0.85;;;0.25;;
75990;SDS011;64673;52.276;10.560;2023-08-01T06:27:49;0.73;;;0.20;;
75990;SDS011;64673;52.276;10.560;2023-08-01T06:30:14;0.80;;;0.30;;
75990;SDS011;64673;52.276;10.560;2023-08-01T06:32:40;2.05;;;0.40;;
75990;SDS011;64673;52.276;10.560;2023-08-01T06:35:05;1.50;;;1.05;;
75990;SDS011;64673;52.276;10.560;2023-08-01T06:37:31;1.38;;;0.40;;
75990;SDS011;64673;52.276;10.560;2023-08-01T06:39:57;0.93;;;0.40;;
75990;SDS011;64673;52.276;10.560;2023-08-01T06:42:24;1.15;;;0.63;;
75990;SDS011;64673;52.276;10.560;2023-08-01T06:44:49;1.00;;;0.50;;
75990;SDS011;64673;52.276;10.560;2023-08-01T06:47:15;2.65;;;0.70;;
75990;SDS011;64673;52.276;10.560;2023-08-01T06:49:40;1.83;;;0.50;;
75990;SDS011;64673;52.276;10.560;2023-08-01T06:52:05;0.90;;;0.55;;
75990;SDS011;64673;52.276;10.560;2023-08-01T06:54:31;0.90;;;0.40;;
75990;SDS011;64673;52.276;10.560;2023-08-01T06:56:57;1.20;;;0.50;;
75990;SDS011;64673;52.276;10.560;2023-08-01T06:59:24;3.33;;;0.70;;
75990;SDS011;64673;52.276;10.560;2023-08-01T07:01:49;0.93;;;0.50;;
75990;SDS011;64673;52.276;10.560;2023-08-01T07:04:14;2.65;;;0.65;;
75990;SDS011;64673;52.276;10.560;2023-08-01T07:06:40;1.63;;;0.80;;
75990;SDS011;64673;52.276;10.560;2023-08-01T07:09:05;2.33;;;1.00;;
75990;SDS011;64673;52.276;10.560;2023-08-01T07:11:31;1.83;;;0.80;;
75990;SDS011;64673;52.276;10.560;2023-08-01T07:13:57;1.38;;;0.60;;
75990;SDS011;64673;52.276;10.560;2023-08-01T07:16:22;2.33;;;0.80;;
75990;SDS011;64673;52.276;10.560;2023-08-01T07:18:48;2.08;;;1.17;;
75990;SDS011;64673;52.276;10.560;2023-08-01T07:21:13;3.47;;;0.98;;
75990;SDS011;64673;52.276;10.560;2023-08-01T07:23:39;3.42;;;1.17;;
75990;SDS011;64673;52.276;10.560;2023-08-01T07:26:04;2.05;;;1.05;;
75990;SDS011;64673;52.276;10.560;2023-08-01T07:28:30;1.30;;;0.85;;
75990;SDS011;64673;52.276;10.560;2023-08-01T07:30:59;5.60;;;1.00;;
75990;SDS011;64673;52.276;10.560;2023-08-01T07:33:24;4.82;;;1.08;;
75990;SDS011;64673;52.276;10.560;2023-08-01T07:35:50;3.90;;;1.20;;
75990;SDS011;64673;52.276;10.560;2023-08-01T07:38:15;3.75;;;1.27;;
75990;SDS011;64673;52.276;10.560;2023-08-01T07:40:41;2.03;;;1.02;;
75990;SDS011;64673;52.276;10.560;2023-08-01T07:43:06;1.83;;;0.80;;
75990;SDS011;64673;52.276;10.560;2023-08-01T07:45:33;1.95;;;1.00;;
75990;SDS011;64673;52.276;10.560;2023-08-01T07:47:59;3.00;;;0.70;;
75990;SDS011;64673;52.276;10.560;2023-08-01T07:50:25;3.30;;;0.82;;
75990;SDS011;64673;52.276;10.560;2023-08-01T07:52:51;1.80;;;0.93;;
75990;SDS011;64673;52.276;10.560;2023-08-01T07:55:16;2.60;;;0.95;;
75990;SDS011;64673;52.276;10.560;2023-08-01T07:57:43;1.52;;;0.73;;
75990;SDS011;64673;52.276;10.560;2023-08-01T08:00:11;2.60;;;0.80;;
75990;SDS011;64673;52.276;10.560;2023-08-01T08:02:37;2.78;;;1.02;;
75990;SDS011;64673;52.276;10.560;2023-08-01T08:05:02;3.22;;;1.10;;
75990;SDS011;64673;52.276;10.560;2023-08-01T08:07:28;2.85;;;1.50;;
75990;SDS011;64673;52.276;10.560;2023-08-01T08:09:53;4.15;;;1.90;;
75990;SDS011;64673;52.276;10.560;2023-08-01T08:12:20;4.38;;;1.92;;
75990;SDS011;64673;52.276;10.560;2023-08-01T08:14:46;6.97;;;2.28;;
75990;SDS011;64673;52.276;10.560;2023-08-01T08:17:12;6.25;;;2.38;;
75990;SDS011;64673;52.276;10.560;2023-08-01T08:19:37;8.55;;;2.75;;
75990;SDS011;64673;52.276;10.560;2023-08-01T08:22:04;7.30;;;3.17;;
75990;SDS011;64673;52.276;10.560;2023-08-01T08:24:29;7.82;;;2.70;;
75990;SDS011;64673;52.276;10.560;2023-08-01T08:26:55;8.05;;;2.63;;
75990;SDS011;64673;52.276;10.560;2023-08-01T08:29:20;6.07;;;2.20;;
75990;SDS011;64673;52.276;10.560;2023-08-01T08:31:46;6.80;;;2.55;;
75990;SDS011;64673;52.276;10.560;2023-08-01T08:34:11;7.45;;;2.50;;
75990;SDS011;64673;52.276;10.560;2023-08-01T08:36:37;6.55;;;2.70;;
75990;SDS011;64673;52.276;10.560;2023-08-01T08:39:02;5.70;;;2.33;;
75990;SDS011;64673;52.276;10.560;2023-08-01T08:41:28;7.22;;;2.88;;
75990;SDS011;64673;52.276;10.560;2023-08-01T08:43:57;7.88;;;2.92;;
75990;SDS011;64673;52.276;10.560;2023-08-01T08:46:26;8.75;;;2.60;;
75990;SDS011;64673;52.276;10.560;2023-08-01T08:48:54;6.72;;;2.80;;
75990;SDS011;64673;52.276;10.560;2023-08-01T08:51:22;5.93;;;2.83;;
75990;SDS011;64673;52.276;10.560;2023-08-01T08:53:49;5.72;;;2.67;;
75990;SDS011;64673;52.276;10.560;2023-08-01T08:56:18;5.00;;;3.00;;
75990;SDS011;64673;52.276;10.560;2023-08-01T08:58:45;8.15;;;3.10;;
75990;SDS011;64673;52.276;10.560;2023-08-01T09:01:12;7.13;;;2.60;;
75990;SDS011;64673;52.276;10.560;2023-08-01T09:03:38;8.00;;;3.10;;
75990;SDS011;64673;52.276;10.560;2023-08-01T09:06:04;6.13;;;2.80;;
75990;SDS011;64673;52.276;10.560;2023-08-01T09:08:32;9.07;;;2.88;;
75990;SDS011;64673;52.276;10.560;2023-08-01T09:11:01;6.75;;;2.72;;
75990;SDS011;64673;52.276;10.560;2023-08-01T09:13:26;7.20;;;2.53;;
75990;SDS011;64673;52.276;10.560;2023-08-01T09:15:52;6.43;;;2.30;;
75990;SDS011;64673;52.276;10.560;2023-08-01T09:18:18;5.72;;;2.08;;
75990;SDS011;64673;52.276;10.560;2023-08-01T09:20:44;7.18;;;2.63;;
75990;SDS011;64673;52.276;10.560;2023-08-01T09:23:11;5.68;;;2.47;;
75990;SDS011;64673;52.276;10.560;2023-08-01T09:25:36;5.60;;;2.35;;
75990;SDS011;64673;52.276;10.560;2023-08-01T09:28:02;5.88;;;2.53;;
75990;SDS011;64673;52.276;10.560;2023-08-01T09:30:28;5.68;;;2.35;;
75990;SDS011;64673;52.276;10.560;2023-08-01T09:32:54;5.43;;;2.22;;
75990;SDS011;64673;52.276;10.560;2023-08-01T09:35:20;5.22;;;2.45;;
75990;SDS011;64673;52.276;10.560;2023-08-01T09:37:46;5.22;;;2.30;;
75990;SDS011;64673;52.276;10.560;2023-08-01T09:40:13;6.53;;;2.15;;
75990;SDS011;64673;52.276;10.560;2023-08-01T09:42:42;5.57;;;2.05;;
75990;SDS011;64673;52.276;10.560;2023-08-01T09:45:12;6.43;;;1.95;;
75990;SDS011;64673;52.276;10.560;2023-08-01T09:47:39;4.15;;;2.65;;
75990;SDS011;64673;52.276;10.560;2023-08-01T09:50:05;6.45;;;2.15;;
75990;SDS011;64673;52.276;10.560;2023-08-01T09:52:30;3.13;;;1.83;;
75990;SDS011;64673;52.276;10.560;2023-08-01T09:54:55;5.20;;;1.75;;
75990;SDS011;64673;52.276;10.560;2023-08-01T09:57:21;3.83;;;1.80;;
75990;SDS011;64673;52.276;10.560;2023-08-01T09:59:47;6.43;;;2.10;;
75990;SDS011;64673;52.276;10.560;2023-08-01T10:02:15;5.50;;;1.90;;
75990;SDS011;64673;52.276;10.560;2023-08-01T10:04:44;3.35;;;1.60;;
75990;SDS011;64673;52.276;10.560;2023-08-01T10:07:11;3.63;;;1.60;;
75990;SDS011;64673;52.276;10.560;2023-08-01T10:09:38;4.45;;;1.35;;
75990;SDS011;64673;52.276;10.560;2023-08-01T10:12:05;3.90;;;1.60;;
75990;SDS011;64673;52.276;10.560;2023-08-01T10:14:33;3.53;;;1.33;;
75990;SDS011;64673;52.276;10.560;2023-08-01T10:16:59;2.40;;;1.25;;
75990;SDS011;64673;52.276;10.560;2023-08-01T10:19:27;4.55;;;1.40;;
75990;SDS011;64673;52.276;10.560;2023-08-01T10:21:56;5.28;;;1.15;;
75990;SDS011;64673;52.276;10.560;2023-08-01T10:24:22;2.97;;;1.20;;
75990;SDS011;64673;52.276;10.560;2023-08-01T10:26:49;3.50;;;1.20;;
75990;SDS011;64673;52.276;10.560;2023-08-01T10:29:14;4.85;;;1.23;;
75990;SDS011;64673;52.276;10.560;2023-08-01T10:31:50;3.60;;;1.52;;
75990;SDS011;64673;52.276;10.560;2023-08-01T10:34:19;3.22;;;1.10;;
75990;SDS011;64673;52.276;10.560;2023-08-01T10:36:56;3.80;;;1.30;;
75990;SDS011;64673;52.276;10.560;2023-08-01T10:39:23;2.67;;;1.23;;
75990;SDS011;64673;52.276;10.560;2023-08-01T10:41:59;2.22;;;1.08;;
75990;SDS011;64673;52.276;10.560;2023-08-01T10:44:27;3.00;;;1.48;;
75990;SDS011;64673;52.276;10.560;2023-08-01T10:46:54;4.07;;;1.27;;
75990;SDS011;64673;52.276;10.560;2023-08-01T10:49:32;4.05;;;1.23;;
75990;SDS011;64673;52.276;10.560;2023-08-01T10:51:57;4.47;;;1.65;;
75990;SDS011;64673;52.276;10.560;2023-08-01T10:54:24;3.58;;;1.38;;
75990;SDS011;64673;52.276;10.560;2023-08-01T10:59:20;4.00;;;1.30;;
75990;SDS011;64673;52.276;10.560;2023-08-01T11:01:50;2.55;;;1.65;;
75990;SDS011;64673;52.276;10.560;2023-08-01T11:04:21;3.17;;;1.08;;
75990;SDS011;64673;52.276;10.560;2023-08-01T11:06:48;4.60;;;1.17;;
75990;SDS011;64673;52.276;10.560;2023-08-01T11:09:19;2.80;;;1.10;;
75990;SDS011;64673;52.276;10.560;2023-08-01T11:11:57;1.70;;;0.85;;
75990;SDS011;64673;52.276;10.560;2023-08-01T11:14:28;2.78;;;0.90;;
75990;SDS011;64673;52.276;10.560;2023-08-01T11:16:54;1.80;;;0.90;;
75990;SDS011;64673;52.276;10.560;2023-08-01T11:19:25;2.83;;;1.15;;
75990;SDS011;64673;52.276;10.560;2023-08-01T11:21:52;3.28;;;1.02;;
75990;SDS011;64673;52.276;10.560;2023-08-01T11:24:18;4.28;;;1.10;;
75990;SDS011;64673;52.276;10.560;2023-08-01T11:26:45;2.88;;;0.82;;
75990;SDS011;64673;52.276;10.560;2023-08-01T11:29:12;2.92;;;1.00;;
75990;SDS011;64673;52.276;10.560;2023-08-01T11:31:39;3.22;;;1.33;;
75990;SDS011;64673;52.276;10.560;2023-08-01T11:34:06;2.38;;;1.08;;
75990;SDS011;64673;52.276;10.560;2023-08-01T11:36:39;2.92;;;1.20;;
75990;SDS011;64673;52.276;10.560;2023-08-01T11:39:05;3.20;;;1.20;;
75990;SDS011;64673;52.276;10.560;2023-08-01T11:41:30;4.30;;;1.40;;
75990;SDS011;64673;52.276;10.560;2023-08-01T11:44:00;3.60;;;1.10;;
75990;SDS011;64673;52.276;10.560;2023-08-01T11:46:30;1.60;;;1.00;;
75990;SDS011;64673;52.276;10.560;2023-08-01T11:48:57;1.70;;;0.90;;
75990;SDS011;64673;52.276;10.560;2023-08-01T11:51:23;1.90;;;1.00;;
75990;SDS011;64673;52.276;10.560;2023-08-01T11:53:59;4.15;;;1.17;;
75990;SDS011;64673;52.276;10.560;2023-08-01T11:56:28;2.67;;;1.40;;
75990;SDS011;64673;52.276;10.560;2023-08-01T11:58:54;2.47;;;0.90;;
75990;SDS011;64673;52.276;10.560;2023-08-01T12:01:19;1.42;;;0.82;;
75990;SDS011;64673;52.276;10.560;2023-08-01T12:03:46;1.73;;;0.82;;
75990;SDS011;64673;52.276;10.560;2023-08-01T12:06:11;4.25;;;1.15;;
75990;SDS011;64673;52.276;10.560;2023-08-01T12:11:04;2.45;;;0.80;;
75990;SDS011;64673;52.276;10.560;2023-08-01T12:13:29;2.05;;;1.02;;
75990;SDS011;64673;52.276;10.560;2023-08-01T12:15:56;2.42;;;0.93;;
75990;SDS011;64673;52.276;10.560;2023-08-01T12:18:26;12.18;;;1.85;;
75990;SDS011;64673;52.276;10.560;2023-08-01T12:20:52;3.38;;;1.25;;
75990;SDS011;64673;52.276;10.560;2023-08-01T12:23:18;2.35;;;0.93;;
75990;SDS011;64673;52.276;10.560;2023-08-01T12:25:43;1.70;;;1.10;;
75990;SDS011;64673;52.276;10.560;2023-08-01T12:28:09;3.42;;;1.13;;
75990;SDS011;64673;52.276;10.560;2023-08-01T12:30:35;2.92;;;1.23;;
75990;SDS011;64673;52.276;10.560;2023-08-01T12:33:00;4.55;;;1.33;;
75990;SDS011;64673;52.276;10.560;2023-08-01T12:35:26;3.83;;;1.27;;
75990;SDS011;64673;52.276;10.560;2023-08-01T12:37:52;2.15;;;0.90;;
75990;SDS011;64673;52.276;10.560;2023-08-01T12:40:18;2.60;;;0.90;;
75990;SDS011;64673;52.276;10.560;2023-08-01T12:42:44;2.90;;;1.10;;
75990;SDS011;64673;52.276;10.560;2023-08-01T12:45:09;1.75;;;1.00;;
75990;SDS011;64673;52.276;10.560;2023-08-01T12:47:35;2.80;;;1.20;;
75990;SDS011;64673;52.276;10.560;2023-08-01T12:50:00;1.92;;;1.00;;
75990;SDS011;64673;52.276;10.560;2023-08-01T12:52:25;3.33;;;1.40;;
75990;SDS011;64673;52.276;10.560;2023-08-01T12:54:51;3.33;;;1.10;;
75990;SDS011;64673;52.276;10.560;2023-08-01T12:57:17;2.45;;;1.10;;
75990;SDS011;64673;52.276;10.560;2023-08-01T12:59:42;3.05;;;1.20;;
75990;SDS011;64673;52.276;10.560;2023-08-01T13:02:07;2.85;;;1.50;;
75990;SDS011;64673;52.276;10.560;2023-08-01T13:04:33;2.00;;;1.30;;
75990;SDS011;64673;52.276;10.560;2023-08-01T13:06:59;1.90;;;1.20;;
75990;SDS011;64673;52.276;10.560;2023-08-01T13:09:25;2.88;;;1.20;;
75990;SDS011;64673;52.276;10.560;2023-08-01T13:11:50;2.97;;;1.17;;
75990;SDS011;64673;52.276;10.560;2023-08-01T13:14:16;2.17;;;1.58;;
75990;SDS011;64673;52.276;10.560;2023-08-01T13:16:41;3.13;;;1.27;;
75990;SDS011;64673;52.276;10.560;2023-08-01T13:19:06;2.92;;;1.60;;
75990;SDS011;64673;52.276;10.560;2023-08-01T13:21:32;3.17;;;1.50;;
75990;SDS011;64673;52.276;10.560;2023-08-01T13:24:01;3.20;;;1.52;;
75990;SDS011;64673;52.276;10.560;2023-08-01T13:26:32;2.72;;;1.27;;
75990;SDS011;64673;52.276;10.560;2023-08-01T13:28:58;4.40;;;1.45;;
75990;SDS011;64673;52.276;10.560;2023-08-01T13:31:25;2.65;;;1.38;;
75990;SDS011;64673;52.276;10.560;2023-08-01T13:33:51;3.22;;;1.58;;
75990;SDS011;64673;52.276;10.560;2023-08-01T13:36:19;3.05;;;1.70;;
75990;SDS011;64673;52.276;10.560;2023-08-01T13:38:45;4.40;;;1.60;;
75990;SDS011;64673;52.276;10.560;2023-08-01T13:41:10;3.47;;;1.38;;
75990;SDS011;64673;52.276;10.560;2023-08-01T13:43:35;3.45;;;1.10;;
75990;SDS011;64673;52.276;10.560;2023-08-01T13:46:07;1.90;;;1.00;;
75990;SDS011;64673;52.276;10.560;2023-08-01T13:48:44;2.60;;;1.00;;
75990;SDS011;64673;52.276;10.560;2023-08-01T13:51:09;2.33;;;1.10;;
75990;SDS011;64673;52.276;10.560;2023-08-01T13:53:35;3.63;;;1.10;;
75990;SDS011;64673;52.276;10.560;2023-08-01T13:56:06;2.08;;;0.90;;
75990;SDS011;64673;52.276;10.560;2023-08-01T13:58:31;2.63;;;1.13;;
75990;SDS011;64673;52.276;10.560;2023-08-01T14:01:01;3.45;;;1.33;;
75990;SDS011;64673;52.276;10.560;2023-08-01T14:03:38;2.20;;;1.30;;
75990;SDS011;64673;52.276;10.560;2023-08-01T14:08:30;3.58;;;1.58;;
75990;SDS011;64673;52.276;10.560;2023-08-01T14:10:55;3.20;;;1.55;;
75990;SDS011;64673;52.276;10.560;2023-08-01T14:13:20;1.90;;;1.30;;
75990;SDS011;64673;52.276;10.560;2023-08-01T14:15:46;2.00;;;1.13;;
75990;SDS011;64673;52.276;10.560;2023-08-01T14:18:11;2.03;;;1.30;;
75990;SDS011;64673;52.276;10.560;2023-08-01T14:20:36;3.33;;;1.15;;
75990;SDS011;64673;52.276;10.560;2023-08-01T14:23:02;2.20;;;1.33;;
75990;SDS011;64673;52.276;10.560;2023-08-01T14:25:27;2.90;;;1.20;;
75990;SDS011;64673;52.276;10.560;2023-08-01T14:27:53;1.77;;;1.00;;
75990;SDS011;64673;52.276;10.560;2023-08-01T14:30:18;1.60;;;1.15;;
75990;SDS011;64673;52.276;10.560;2023-08-01T14:32:43;2.05;;;1.20;;
75990;SDS011;64673;52.276;10.560;2023-08-01T14:35:09;3.13;;;1.17;;
75990;SDS011;64673;52.276;10.560;2023-08-01T14:37:35;2.45;;;1.17;;